sensor_id;sensor_type;location;lat;lon;timestamp;temperature;humidity
20141;DHT22;10231;47.702;9.826;2023-02-02T00:00:01;4.20;99.90
20141;DHT22;10231;47.702;9.826;2023-02-02T00:02:27;4.10;99.90
20141;DHT22;10231;47.702;9.826;2023-02-02T00:04:52;4.20;99.90
20141;DHT22;10231;47.702;9.826;2023-02-02T00:07:18;4.10;99.90
20141;DHT22;10231;47.702;9.826;2023-02-02T00:09:43;4.10;99.90
20141;DHT22;10231;47.702;9.826;2023-02-02T00:12:09;4.10;99.90
20141;DHT22;10231;47.702;9.826;2023-02-02T00:14:34;4.10;99.90
20141;DHT22;10231;47.702;9.826;2023-02-02T00:17:00;4.10;99.90
20141;DHT22;10231;47.702;9.826;2023-02-02T00:19:27;4.10;99.90
20141;DHT22;10231;47.702;9.826;2023-02-02T00:21:55;4.10;99.90
20141;DHT22;10231;47.702;9.826;2023-02-02T00:24:21;4.10;99.90
20141;DHT22;10231;47.702;9.826;2023-02-02T00:26:49;4.20;99.90
20141;DHT22;10231;47.702;9.826;2023-02-02T00:29:18;4.10;99.90
20141;DHT22;10231;47.702;9.826;2023-02-02T00:31:44;4.10;99.90
20141;DHT22;10231;47.702;9.826;2023-02-02T00:34:11;4.10;99.90
20141;DHT22;10231;47.702;9.826;2023-02-02T00:36:37;4.10;99.90
20141;DHT22;10231;47.702;9.826;2023-02-02T00:39:03;4.10;99.90
20141;DHT22;10231;47.702;9.826;2023-02-02T00:41:28;4.10;99.90
20141;DHT22;10231;47.702;9.826;2023-02-02T00:43:54;4.10;99.90
20141;DHT22;10231;47.702;9.826;2023-02-02T00:46:39;4.10;99.90
20141;DHT22;10231;47.702;9.826;2023-02-02T00:49:05;4.10;99.90
20141;DHT22;10231;47.702;9.826;2023-02-02T00:51:30;4.10;99.90
20141;DHT22;10231;47.702;9.826;2023-02-02T00:53:56;4.10;99.90
20141;DHT22;10231;47.702;9.826;2023-02-02T00:56:22;4.10;99.90
20141;DHT22;10231;47.702;9.826;2023-02-02T00:58:47;4.10;99.90
20141;DHT22;10231;47.702;9.826;2023-02-02T01:01:17;4.10;99.90
20141;DHT22;10231;47.702;9.826;2023-02-02T01:03:45;4.10;99.90
20141;DHT22;10231;47.702;9.826;2023-02-02T01:06:10;4.10;99.90
20141;DHT22;10231;47.702;9.826;2023-02-02T01:08:36;4.10;99.90
20141;DHT22;10231;47.702;9.826;2023-02-02T01:11:02;4.10;99.90
20141;DHT22;10231;47.702;9.826;2023-02-02T01:13:27;4.10;99.90
20141;DHT22;10231;47.702;9.826;2023-02-02T01:15:57;4.10;99.90
20141;DHT22;10231;47.702;9.826;2023-02-02T01:18:23;4.10;99.90
20141;DHT22;10231;47.702;9.826;2023-02-02T01:20:59;4.00;99.90
20141;DHT22;10231;47.702;9.826;2023-02-02T01:23:25;4.00;99.90
20141;DHT22;10231;47.702;9.826;2023-02-02T01:25:55;4.00;99.90
20141;DHT22;10231;47.702;9.826;2023-02-02T01:28:22;4.00;99.90
20141;DHT22;10231;47.702;9.826;2023-02-02T01:30:47;4.00;99.90
20141;DHT22;10231;47.702;9.826;2023-02-02T01:33:14;4.00;99.90
20141;DHT22;10231;47.702;9.826;2023-02-02T01:35:51;4.00;99.90
20141;DHT22;10231;47.702;9.826;2023-02-02T01:38:18;4.00;99.90
20141;DHT22;10231;47.702;9.826;2023-02-02T01:40:55;4.10;99.90
20141;DHT22;10231;47.702;9.826;2023-02-02T01:43:23;4.00;99.90
20141;DHT22;10231;47.702;9.826;2023-02-02T01:45:50;4.00;99.90
20141;DHT22;10231;47.702;9.826;2023-02-02T01:48:18;4.00;99.90
20141;DHT22;10231;47.702;9.826;2023-02-02T01:50:45;4.00;99.90
20141;DHT22;10231;47.702;9.826;2023-02-02T01:53:12;4.00;99.90
20141;DHT22;10231;47.702;9.826;2023-02-02T01:55:39;4.00;99.90
20141;DHT22;10231;47.702;9.826;2023-02-02T01:58:10;4.00;99.90
20141;DHT22;10231;47.702;9.826;2023-02-02T02:00:38;4.00;99.90
20141;DHT22;10231;47.702;9.826;2023-02-02T02:03:09;4.00;99.90
20141;DHT22;10231;47.702;9.826;2023-02-02T02:05:39;3.90;99.90
20141;DHT22;10231;47.702;9.826;2023-02-02T02:08:14;4.00;99.90
20141;DHT22;10231;47.702;9.826;2023-02-02T02:10:41;4.00;99.90
20141;DHT22;10231;47.702;9.826;2023-02-02T02:13:07;4.00;99.90
20141;DHT22;10231;47.702;9.826;2023-02-02T02:15:40;3.90;99.90
20141;DHT22;10231;47.702;9.826;2023-02-02T02:18:29;3.90;99.90
20141;DHT22;10231;47.702;9.826;2023-02-02T02:30:02;4.00;99.90
20141;DHT22;10231;47.702;9.826;2023-02-02T02:35:28;4.00;99.90
20141;DHT22;10231;47.702;9.826;2023-02-02T02:40:38;4.00;99.90
20141;DHT22;10231;47.702;9.826;2023-02-02T02:43:14;4.00;99.90
20141;DHT22;10231;47.702;9.826;2023-02-02T02:45:41;3.90;99.90
20141;DHT22;10231;47.702;9.826;2023-02-02T02:48:09;3.90;99.90
20141;DHT22;10231;47.702;9.826;2023-02-02T02:50:34;3.90;99.90
20141;DHT22;10231;47.702;9.826;2023-02-02T02:53:20;3.90;99.90
20141;DHT22;10231;47.702;9.826;2023-02-02T02:56:01;3.90;99.90
20141;DHT22;10231;47.702;9.826;2023-02-02T02:58:44;3.90;99.90
20141;DHT22;10231;47.702;9.826;2023-02-02T03:01:13;3.90;99.90
20141;DHT22;10231;47.702;9.826;2023-02-02T03:06:35;3.90;99.90
20141;DHT22;10231;47.702;9.826;2023-02-02T03:09:08;4.00;99.90
20141;DHT22;10231;47.702;9.826;2023-02-02T03:11:35;3.90;99.90
20141;DHT22;10231;47.702;9.826;2023-02-02T03:14:01;4.00;99.90
20141;DHT22;10231;47.702;9.826;2023-02-02T03:16:27;3.90;99.90
20141;DHT22;10231;47.702;9.826;2023-02-02T03:18:53;3.90;99.90
20141;DHT22;10231;47.702;9.826;2023-02-02T03:21:20;3.90;99.90
20141;DHT22;10231;47.702;9.826;2023-02-02T03:23:46;3.90;99.90
20141;DHT22;10231;47.702;9.826;2023-02-02T03:26:12;3.90;99.90
20141;DHT22;10231;47.702;9.826;2023-02-02T03:28:37;3.90;99.90
20141;DHT22;10231;47.702;9.826;2023-02-02T03:31:04;3.90;99.90
20141;DHT22;10231;47.702;9.826;2023-02-02T03:33:31;3.90;99.90
20141;DHT22;10231;47.702;9.826;2023-02-02T03:35:57;3.90;99.90
20141;DHT22;10231;47.702;9.826;2023-02-02T03:38:23;3.90;99.90
20141;DHT22;10231;47.702;9.826;2023-02-02T03:40:49;3.90;99.90
20141;DHT22;10231;47.702;9.826;2023-02-02T03:43:19;3.90;99.90
20141;DHT22;10231;47.702;9.826;2023-02-02T03:45:45;3.80;99.90
20141;DHT22;10231;47.702;9.826;2023-02-02T03:48:11;3.80;99.90
20141;DHT22;10231;47.702;9.826;2023-02-02T03:50:36;3.80;99.90
20141;DHT22;10231;47.702;9.826;2023-02-02T03:53:02;3.80;99.90
20141;DHT22;10231;47.702;9.826;2023-02-02T03:55:28;3.80;99.90
20141;DHT22;10231;47.702;9.826;2023-02-02T03:57:53;3.70;99.90
20141;DHT22;10231;47.702;9.826;2023-02-02T04:00:19;3.70;99.90
20141;DHT22;10231;47.702;9.826;2023-02-02T04:02:45;3.70;99.90
20141;DHT22;10231;47.702;9.826;2023-02-02T04:05:10;3.60;99.90
20141;DHT22;10231;47.702;9.826;2023-02-02T04:07:36;3.60;99.90
20141;DHT22;10231;47.702;9.826;2023-02-02T04:10:03;3.60;99.90
20141;DHT22;10231;47.702;9.826;2023-02-02T04:12:28;3.70;99.90
20141;DHT22;10231;47.702;9.826;2023-02-02T04:14:54;3.70;99.90
20141;DHT22;10231;47.702;9.826;2023-02-02T04:17:19;3.60;99.90
20141;DHT22;10231;47.702;9.826;2023-02-02T04:19:45;3.60;99.90
20141;DHT22;10231;47.702;9.826;2023-02-02T04:22:10;3.50;99.90
20141;DHT22;10231;47.702;9.826;2023-02-02T04:24:36;3.50;99.90
20141;DHT22;10231;47.702;9.826;2023-02-02T04:27:01;3.40;99.90
20141;DHT22;10231;47.702;9.826;2023-02-02T04:29:27;3.40;99.90
20141;DHT22;10231;47.702;9.826;2023-02-02T04:31:53;3.40;99.90
20141;DHT22;10231;47.702;9.826;2023-02-02T04:34:18;3.40;99.90
20141;DHT22;10231;47.702;9.826;2023-02-02T04:36:44;3.40;99.90
20141;DHT22;10231;47.702;9.826;2023-02-02T04:39:10;3.40;99.90
20141;DHT22;10231;47.702;9.826;2023-02-02T04:41:36;3.40;99.90
20141;DHT22;10231;47.702;9.826;2023-02-02T04:44:01;3.50;99.90
20141;DHT22;10231;47.702;9.826;2023-02-02T04:46:28;3.50;99.90
20141;DHT22;10231;47.702;9.826;2023-02-02T04:48:53;3.40;99.90
20141;DHT22;10231;47.702;9.826;2023-02-02T04:51:19;3.50;99.90
20141;DHT22;10231;47.702;9.826;2023-02-02T04:53:44;3.50;99.90
20141;DHT22;10231;47.702;9.826;2023-02-02T04:56:13;3.40;99.90
20141;DHT22;10231;47.702;9.826;2023-02-02T04:58:40;3.50;99.90
20141;DHT22;10231;47.702;9.826;2023-02-02T05:03:34;3.40;99.90
20141;DHT22;10231;47.702;9.826;2023-02-02T05:06:04;3.40;99.90
20141;DHT22;10231;47.702;9.826;2023-02-02T05:08:30;3.50;99.90
20141;DHT22;10231;47.702;9.826;2023-02-02T05:10:55;3.40;99.90
20141;DHT22;10231;47.702;9.826;2023-02-02T05:13:21;3.40;99.90
20141;DHT22;10231;47.702;9.826;2023-02-02T05:15:47;3.50;99.90
20141;DHT22;10231;47.702;9.826;2023-02-02T05:18:12;3.40;99.90
20141;DHT22;10231;47.702;9.826;2023-02-02T05:20:38;3.40;99.90
20141;DHT22;10231;47.702;9.826;2023-02-02T05:23:03;3.40;99.90
20141;DHT22;10231;47.702;9.826;2023-02-02T05:25:29;3.40;99.90
20141;DHT22;10231;47.702;9.826;2023-02-02T05:27:54;3.40;99.90
20141;DHT22;10231;47.702;9.826;2023-02-02T05:30:20;3.40;99.90
20141;DHT22;10231;47.702;9.826;2023-02-02T05:32:46;3.40;99.90
20141;DHT22;10231;47.702;9.826;2023-02-02T05:35:11;3.40;99.90
20141;DHT22;10231;47.702;9.826;2023-02-02T05:37:37;3.50;99.90
20141;DHT22;10231;47.702;9.826;2023-02-02T05:40:03;3.50;99.90
20141;DHT22;10231;47.702;9.826;2023-02-02T05:42:29;3.40;99.90
20141;DHT22;10231;47.702;9.826;2023-02-02T05:44:54;3.40;99.90
20141;DHT22;10231;47.702;9.826;2023-02-02T05:47:20;3.40;99.90
20141;DHT22;10231;47.702;9.826;2023-02-02T05:49:46;3.40;99.90
20141;DHT22;10231;47.702;9.826;2023-02-02T05:52:17;3.40;99.90
20141;DHT22;10231;47.702;9.826;2023-02-02T05:54:43;3.40;99.90
20141;DHT22;10231;47.702;9.826;2023-02-02T05:57:09;3.40;99.90
20141;DHT22;10231;47.702;9.826;2023-02-02T05:59:35;3.40;99.90
20141;DHT22;10231;47.702;9.826;2023-02-02T06:02:00;3.40;99.90
20141;DHT22;10231;47.702;9.826;2023-02-02T06:04:26;3.50;99.90
20141;DHT22;10231;47.702;9.826;2023-02-02T06:06:51;3.40;99.90
20141;DHT22;10231;47.702;9.826;2023-02-02T06:09:17;3.40;99.90
20141;DHT22;10231;47.702;9.826;2023-02-02T06:11:43;3.50;99.90
20141;DHT22;10231;47.702;9.826;2023-02-02T06:14:09;3.50;99.90
20141;DHT22;10231;47.702;9.826;2023-02-02T06:16:35;3.50;99.90
20141;DHT22;10231;47.702;9.826;2023-02-02T06:19:01;3.60;99.90
20141;DHT22;10231;47.702;9.826;2023-02-02T06:21:26;3.50;99.90
20141;DHT22;10231;47.702;9.826;2023-02-02T06:23:56;3.50;99.90
20141;DHT22;10231;47.702;9.826;2023-02-02T06:26:22;3.50;99.90
20141;DHT22;10231;47.702;9.826;2023-02-02T06:28:50;3.60;99.90
20141;DHT22;10231;47.702;9.826;2023-02-02T06:31:16;3.60;99.90
20141;DHT22;10231;47.702;9.826;2023-02-02T06:33:46;3.60;99.90
20141;DHT22;10231;47.702;9.826;2023-02-02T06:36:12;3.60;99.90
20141;DHT22;10231;47.702;9.826;2023-02-02T06:38:37;3.60;99.90
20141;DHT22;10231;47.702;9.826;2023-02-02T06:41:03;3.60;99.90
20141;DHT22;10231;47.702;9.826;2023-02-02T06:43:29;3.60;99.90
20141;DHT22;10231;47.702;9.826;2023-02-02T06:45:58;3.60;99.90
20141;DHT22;10231;47.702;9.826;2023-02-02T06:48:24;3.60;99.90
20141;DHT22;10231;47.702;9.826;2023-02-02T06:50:50;3.60;99.90
20141;DHT22;10231;47.702;9.826;2023-02-02T06:53:16;3.60;99.90
20141;DHT22;10231;47.702;9.826;2023-02-02T06:55:59;3.60;99.90
20141;DHT22;10231;47.702;9.826;2023-02-02T06:58:27;3.60;99.90
20141;DHT22;10231;47.702;9.826;2023-02-02T07:00:53;3.60;99.90
20141;DHT22;10231;47.702;9.826;2023-02-02T07:03:20;3.60;99.90
20141;DHT22;10231;47.702;9.826;2023-02-02T07:05:49;3.70;99.90
20141;DHT22;10231;47.702;9.826;2023-02-02T07:08:15;3.60;99.90
20141;DHT22;10231;47.702;9.826;2023-02-02T07:10:40;3.60;99.90
20141;DHT22;10231;47.702;9.826;2023-02-02T07:13:07;3.60;99.90
20141;DHT22;10231;47.702;9.826;2023-02-02T07:15:33;3.70;99.90
20141;DHT22;10231;47.702;9.826;2023-02-02T07:17:59;3.70;99.90
20141;DHT22;10231;47.702;9.826;2023-02-02T07:20:25;3.70;99.90
20141;DHT22;10231;47.702;9.826;2023-02-02T07:22:50;3.70;99.90
20141;DHT22;10231;47.702;9.826;2023-02-02T07:25:16;3.60;99.90
20141;DHT22;10231;47.702;9.826;2023-02-02T07:27:41;3.60;99.90
20141;DHT22;10231;47.702;9.826;2023-02-02T07:30:07;3.60;99.90
20141;DHT22;10231;47.702;9.826;2023-02-02T07:32:33;3.70;99.90
20141;DHT22;10231;47.702;9.826;2023-02-02T07:34:59;3.70;99.90
20141;DHT22;10231;47.702;9.826;2023-02-02T07:37:24;3.60;99.90
20141;DHT22;10231;47.702;9.826;2023-02-02T07:39:50;3.70;99.90
20141;DHT22;10231;47.702;9.826;2023-02-02T07:42:15;3.60;99.90
20141;DHT22;10231;47.702;9.826;2023-02-02T07:44:41;3.70;99.90
20141;DHT22;10231;47.702;9.826;2023-02-02T07:47:06;3.70;99.90
20141;DHT22;10231;47.702;9.826;2023-02-02T07:49:32;3.70;99.90
20141;DHT22;10231;47.702;9.826;2023-02-02T07:51:57;3.70;99.90
20141;DHT22;10231;47.702;9.826;2023-02-02T07:54:23;3.70;99.90
20141;DHT22;10231;47.702;9.826;2023-02-02T07:56:48;3.70;99.90
20141;DHT22;10231;47.702;9.826;2023-02-02T07:59:14;3.70;99.90
20141;DHT22;10231;47.702;9.826;2023-02-02T08:01:40;3.70;99.90
20141;DHT22;10231;47.702;9.826;2023-02-02T08:04:06;3.80;99.90
20141;DHT22;10231;47.702;9.826;2023-02-02T08:06:36;3.70;99.90
20141;DHT22;10231;47.702;9.826;2023-02-02T08:09:05;3.70;99.90
20141;DHT22;10231;47.702;9.826;2023-02-02T08:11:33;3.70;99.90
20141;DHT22;10231;47.702;9.826;2023-02-02T08:14:00;3.80;99.90
20141;DHT22;10231;47.702;9.826;2023-02-02T08:16:28;3.80;99.90
20141;DHT22;10231;47.702;9.826;2023-02-02T08:18:54;3.80;99.90
20141;DHT22;10231;47.702;9.826;2023-02-02T08:21:20;3.80;99.90
20141;DHT22;10231;47.702;9.826;2023-02-02T08:23:46;3.80;99.90
20141;DHT22;10231;47.702;9.826;2023-02-02T08:28:44;3.80;99.90
20141;DHT22;10231;47.702;9.826;2023-02-02T08:31:25;3.80;99.90
20141;DHT22;10231;47.702;9.826;2023-02-02T08:33:52;3.80;99.90
20141;DHT22;10231;47.702;9.826;2023-02-02T08:36:23;3.80;99.90
20141;DHT22;10231;47.702;9.826;2023-02-02T08:38:49;3.70;99.90
20141;DHT22;10231;47.702;9.826;2023-02-02T08:41:17;3.70;99.90
20141;DHT22;10231;47.702;9.826;2023-02-02T08:43:43;3.80;99.90
20141;DHT22;10231;47.702;9.826;2023-02-02T08:46:10;3.70;99.90
20141;DHT22;10231;47.702;9.826;2023-02-02T08:48:37;3.80;99.90
20141;DHT22;10231;47.702;9.826;2023-02-02T08:51:03;3.80;99.90
20141;DHT22;10231;47.702;9.826;2023-02-02T08:53:29;3.80;99.90
20141;DHT22;10231;47.702;9.826;2023-02-02T08:55:58;3.80;99.90
20141;DHT22;10231;47.702;9.826;2023-02-02T08:58:25;3.80;99.90
20141;DHT22;10231;47.702;9.826;2023-02-02T09:00:51;3.80;99.90
20141;DHT22;10231;47.702;9.826;2023-02-02T09:03:16;3.70;99.90
20141;DHT22;10231;47.702;9.826;2023-02-02T09:05:42;3.80;99.90
20141;DHT22;10231;47.702;9.826;2023-02-02T09:08:08;3.80;99.90
20141;DHT22;10231;47.702;9.826;2023-02-02T09:10:35;3.80;99.90
20141;DHT22;10231;47.702;9.826;2023-02-02T09:13:01;3.80;99.90
20141;DHT22;10231;47.702;9.826;2023-02-02T09:15:26;3.70;99.90
20141;DHT22;10231;47.702;9.826;2023-02-02T09:17:52;3.70;99.90
20141;DHT22;10231;47.702;9.826;2023-02-02T09:20:18;3.70;99.90
20141;DHT22;10231;47.702;9.826;2023-02-02T09:22:43;3.70;99.90
20141;DHT22;10231;47.702;9.826;2023-02-02T09:25:09;3.60;99.90
20141;DHT22;10231;47.702;9.826;2023-02-02T09:27:37;3.60;99.90
20141;DHT22;10231;47.702;9.826;2023-02-02T09:30:06;3.60;99.90
20141;DHT22;10231;47.702;9.826;2023-02-02T09:32:31;3.60;99.90
20141;DHT22;10231;47.702;9.826;2023-02-02T09:34:57;3.50;99.90
20141;DHT22;10231;47.702;9.826;2023-02-02T09:37:25;3.60;99.90
20141;DHT22;10231;47.702;9.826;2023-02-02T09:39:50;3.60;99.90
20141;DHT22;10231;47.702;9.826;2023-02-02T09:42:29;3.60;99.90
20141;DHT22;10231;47.702;9.826;2023-02-02T09:45:04;3.60;99.90
20141;DHT22;10231;47.702;9.826;2023-02-02T09:47:46;3.60;99.90
20141;DHT22;10231;47.702;9.826;2023-02-02T09:50:36;3.60;99.90
20141;DHT22;10231;47.702;9.826;2023-02-02T09:56:05;3.70;99.90
20141;DHT22;10231;47.702;9.826;2023-02-02T09:58:43;3.70;99.90
20141;DHT22;10231;47.702;9.826;2023-02-02T10:01:20;3.70;99.90
20141;DHT22;10231;47.702;9.826;2023-02-02T10:04:08;3.70;99.90
20141;DHT22;10231;47.702;9.826;2023-02-02T10:06:37;3.70;99.90
20141;DHT22;10231;47.702;9.826;2023-02-02T10:12:06;3.80;99.90
20141;DHT22;10231;47.702;9.826;2023-02-02T10:14:43;3.80;99.90
20141;DHT22;10231;47.702;9.826;2023-02-02T10:19:47;3.90;99.90
20141;DHT22;10231;47.702;9.826;2023-02-02T10:22:19;3.90;99.90
20141;DHT22;10231;47.702;9.826;2023-02-02T10:24:46;4.00;99.90
20141;DHT22;10231;47.702;9.826;2023-02-02T10:27:14;4.00;99.90
20141;DHT22;10231;47.702;9.826;2023-02-02T10:29:55;4.00;99.90
20141;DHT22;10231;47.702;9.826;2023-02-02T10:32:33;4.00;99.90
20141;DHT22;10231;47.702;9.826;2023-02-02T10:37:47;4.10;99.90
20141;DHT22;10231;47.702;9.826;2023-02-02T10:43:31;4.00;99.90
20141;DHT22;10231;47.702;9.826;2023-02-02T10:51:31;4.10;99.90
20141;DHT22;10231;47.702;9.826;2023-02-02T10:53:59;4.10;99.90
20141;DHT22;10231;47.702;9.826;2023-02-02T10:56:39;4.10;99.90
20141;DHT22;10231;47.702;9.826;2023-02-02T10:59:14;4.10;99.90
20141;DHT22;10231;47.702;9.826;2023-02-02T11:01:42;4.10;99.90
20141;DHT22;10231;47.702;9.826;2023-02-02T11:04:08;4.10;99.90
20141;DHT22;10231;47.702;9.826;2023-02-02T11:06:53;4.10;99.90
20141;DHT22;10231;47.702;9.826;2023-02-02T11:09:25;4.20;99.90
20141;DHT22;10231;47.702;9.826;2023-02-02T11:11:56;4.20;99.90
20141;DHT22;10231;47.702;9.826;2023-02-02T11:14:39;4.20;99.90
20141;DHT22;10231;47.702;9.826;2023-02-02T11:17:22;4.30;99.90
20141;DHT22;10231;47.702;9.826;2023-02-02T11:19:49;4.30;99.90
20141;DHT22;10231;47.702;9.826;2023-02-02T11:22:35;4.30;99.90
20141;DHT22;10231;47.702;9.826;2023-02-02T11:27:48;4.30;99.90
20141;DHT22;10231;47.702;9.826;2023-02-02T11:30:31;4.30;99.90
20141;DHT22;10231;47.702;9.826;2023-02-02T11:32:58;4.30;99.90
20141;DHT22;10231;47.702;9.826;2023-02-02T11:35:25;4.40;99.90
20141;DHT22;10231;47.702;9.826;2023-02-02T11:38:13;4.30;99.90
20141;DHT22;10231;47.702;9.826;2023-02-02T11:40:44;4.40;99.90
20141;DHT22;10231;47.702;9.826;2023-02-02T11:43:35;4.40;99.90
20141;DHT22;10231;47.702;9.826;2023-02-02T11:46:16;4.40;99.90
20141;DHT22;10231;47.702;9.826;2023-02-02T11:48:49;4.40;99.90
20141;DHT22;10231;47.702;9.826;2023-02-02T11:51:23;4.40;99.90
20141;DHT22;10231;47.702;9.826;2023-02-02T11:54:00;4.40;99.90
20141;DHT22;10231;47.702;9.826;2023-02-02T11:56:26;4.40;99.90
20141;DHT22;10231;47.702;9.826;2023-02-02T11:58:56;4.50;99.90
20141;DHT22;10231;47.702;9.826;2023-02-02T12:01:35;4.50;99.90
20141;DHT22;10231;47.702;9.826;2023-02-02T12:04:24;4.50;99.90
20141;DHT22;10231;47.702;9.826;2023-02-02T12:06:49;4.50;99.90
20141;DHT22;10231;47.702;9.826;2023-02-02T12:09:21;4.50;99.90
20141;DHT22;10231;47.702;9.826;2023-02-02T12:14:55;4.50;99.90
20141;DHT22;10231;47.702;9.826;2023-02-02T12:17:33;4.50;99.90
20141;DHT22;10231;47.702;9.826;2023-02-02T12:20:30;4.50;99.90
20141;DHT22;10231;47.702;9.826;2023-02-02T12:25:59;4.50;99.90
20141;DHT22;10231;47.702;9.826;2023-02-02T12:31:13;4.50;99.90
20141;DHT22;10231;47.702;9.826;2023-02-02T12:33:53;4.60;99.90
20141;DHT22;10231;47.702;9.826;2023-02-02T12:45:26;4.60;99.90
20141;DHT22;10231;47.702;9.826;2023-02-02T12:53:39;4.60;99.90
20141;DHT22;10231;47.702;9.826;2023-02-02T12:56:20;4.70;99.90
20141;DHT22;10231;47.702;9.826;2023-02-02T12:58:58;4.70;99.90
20141;DHT22;10231;47.702;9.826;2023-02-02T13:01:42;4.70;99.90
20141;DHT22;10231;47.702;9.826;2023-02-02T13:07:16;4.80;99.90
20141;DHT22;10231;47.702;9.826;2023-02-02T13:10:06;4.80;99.90
20141;DHT22;10231;47.702;9.826;2023-02-02T13:12:38;4.80;99.90
20141;DHT22;10231;47.702;9.826;2023-02-02T13:15:13;4.80;99.90
20141;DHT22;10231;47.702;9.826;2023-02-02T13:17:41;4.80;99.90
20141;DHT22;10231;47.702;9.826;2023-02-02T13:20:20;4.80;99.90
20141;DHT22;10231;47.702;9.826;2023-02-02T13:22:50;4.90;99.90
20141;DHT22;10231;47.702;9.826;2023-02-02T13:25:33;4.80;99.90
20141;DHT22;10231;47.702;9.826;2023-02-02T13:28:01;4.80;99.90
20141;DHT22;10231;47.702;9.826;2023-02-02T13:30:33;4.90;99.90
20141;DHT22;10231;47.702;9.826;2023-02-02T13:33:14;4.80;99.90
20141;DHT22;10231;47.702;9.826;2023-02-02T13:35:56;4.80;99.90
20141;DHT22;10231;47.702;9.826;2023-02-02T13:38:29;4.80;99.90
20141;DHT22;10231;47.702;9.826;2023-02-02T13:40:58;4.90;99.90
20141;DHT22;10231;47.702;9.826;2023-02-02T13:43:30;4.80;99.90
20141;DHT22;10231;47.702;9.826;2023-02-02T13:49:15;4.80;99.90
20141;DHT22;10231;47.702;9.826;2023-02-02T13:51:55;4.80;99.90
20141;DHT22;10231;47.702;9.826;2023-02-02T14:00:12;4.80;99.90
20141;DHT22;10231;47.702;9.826;2023-02-02T14:05:30;4.80;99.90
20141;DHT22;10231;47.702;9.826;2023-02-02T14:10:42;4.70;99.90
20141;DHT22;10231;47.702;9.826;2023-02-02T14:15:59;4.80;99.90
20141;DHT22;10231;47.702;9.826;2023-02-02T14:26:58;4.80;99.90
20141;DHT22;10231;47.702;9.826;2023-02-02T14:45:39;4.80;99.90
20141;DHT22;10231;47.702;9.826;2023-02-02T14:48:10;4.80;99.90
20141;DHT22;10231;47.702;9.826;2023-02-02T14:53:26;4.80;99.90
20141;DHT22;10231;47.702;9.826;2023-02-02T14:56:13;4.80;99.90
20141;DHT22;10231;47.702;9.826;2023-02-02T14:58:54;4.80;99.90
20141;DHT22;10231;47.702;9.826;2023-02-02T15:01:28;4.80;99.90
20141;DHT22;10231;47.702;9.826;2023-02-02T15:06:38;4.80;99.90
20141;DHT22;10231;47.702;9.826;2023-02-02T15:09:34;4.80;99.90
20141;DHT22;10231;47.702;9.826;2023-02-02T15:14:51;4.80;99.90
20141;DHT22;10231;47.702;9.826;2023-02-02T15:17:29;4.80;99.90
20141;DHT22;10231;47.702;9.826;2023-02-02T15:23:01;4.80;99.90
20141;DHT22;10231;47.702;9.826;2023-02-02T15:31:32;4.80;99.90
20141;DHT22;10231;47.702;9.826;2023-02-02T15:34:23;4.80;99.90
20141;DHT22;10231;47.702;9.826;2023-02-02T15:36:59;4.80;99.90
20141;DHT22;10231;47.702;9.826;2023-02-02T15:39:36;4.80;99.90
20141;DHT22;10231;47.702;9.826;2023-02-02T15:42:05;4.80;99.90
20141;DHT22;10231;47.702;9.826;2023-02-02T15:44:50;4.80;99.90
20141;DHT22;10231;47.702;9.826;2023-02-02T15:47:19;4.80;99.90
20141;DHT22;10231;47.702;9.826;2023-02-02T15:49:47;4.80;99.90
20141;DHT22;10231;47.702;9.826;2023-02-02T15:52:20;4.80;99.90
20141;DHT22;10231;47.702;9.826;2023-02-02T15:54:57;4.80;99.90
20141;DHT22;10231;47.702;9.826;2023-02-02T15:57:33;4.90;99.90
20141;DHT22;10231;47.702;9.826;2023-02-02T16:00:02;4.90;99.90
20141;DHT22;10231;47.702;9.826;2023-02-02T16:02:42;4.80;99.90
20141;DHT22;10231;47.702;9.826;2023-02-02T16:05:37;4.80;99.90
20141;DHT22;10231;47.702;9.826;2023-02-02T16:08:11;4.80;99.90
20141;DHT22;10231;47.702;9.826;2023-02-02T16:10:38;4.80;99.90
20141;DHT22;10231;47.702;9.826;2023-02-02T16:13:04;4.80;99.90
20141;DHT22;10231;47.702;9.826;2023-02-02T16:15:30;4.70;99.90
20141;DHT22;10231;47.702;9.826;2023-02-02T16:18:09;4.70;99.90
20141;DHT22;10231;47.702;9.826;2023-02-02T16:20:38;4.70;99.90
20141;DHT22;10231;47.702;9.826;2023-02-02T16:23:11;4.70;99.90
20141;DHT22;10231;47.702;9.826;2023-02-02T16:25:51;4.70;99.90
20141;DHT22;10231;47.702;9.826;2023-02-02T16:28:19;4.80;99.90
20141;DHT22;10231;47.702;9.826;2023-02-02T16:30:46;4.70;99.90
20141;DHT22;10231;47.702;9.826;2023-02-02T16:33:36;4.70;99.90
20141;DHT22;10231;47.702;9.826;2023-02-02T16:36:22;4.70;99.90
20141;DHT22;10231;47.702;9.826;2023-02-02T16:38:49;4.70;99.90
20141;DHT22;10231;47.702;9.826;2023-02-02T16:41:31;4.70;99.90
20141;DHT22;10231;47.702;9.826;2023-02-02T16:44:27;4.80;99.90
20141;DHT22;10231;47.702;9.826;2023-02-02T16:46:52;4.70;99.90
20141;DHT22;10231;47.702;9.826;2023-02-02T16:49:22;4.70;99.90
20141;DHT22;10231;47.702;9.826;2023-02-02T16:52:07;4.80;99.90
20141;DHT22;10231;47.702;9.826;2023-02-02T16:54:33;4.80;99.90
20141;DHT22;10231;47.702;9.826;2023-02-02T16:57:00;4.70;99.90
20141;DHT22;10231;47.702;9.826;2023-02-02T16:59:32;4.80;99.90
20141;DHT22;10231;47.702;9.826;2023-02-02T17:02:15;4.80;99.90
20141;DHT22;10231;47.702;9.826;2023-02-02T17:04:47;4.80;99.90
20141;DHT22;10231;47.702;9.826;2023-02-02T17:07:14;4.70;99.90
20141;DHT22;10231;47.702;9.826;2023-02-02T17:09:42;4.70;99.90
20141;DHT22;10231;47.702;9.826;2023-02-02T17:12:29;4.80;99.90
20141;DHT22;10231;47.702;9.826;2023-02-02T17:15:00;4.80;99.90
20141;DHT22;10231;47.702;9.826;2023-02-02T17:17:29;4.70;99.90
20141;DHT22;10231;47.702;9.826;2023-02-02T17:19:55;4.70;99.90
20141;DHT22;10231;47.702;9.826;2023-02-02T17:22:22;4.70;99.90
20141;DHT22;10231;47.702;9.826;2023-02-02T17:24:51;4.80;99.90
20141;DHT22;10231;47.702;9.826;2023-02-02T17:27:26;4.70;99.90
20141;DHT22;10231;47.702;9.826;2023-02-02T17:29:53;4.70;99.90
20141;DHT22;10231;47.702;9.826;2023-02-02T17:32:19;4.70;99.90
20141;DHT22;10231;47.702;9.826;2023-02-02T17:34:44;4.70;99.90
20141;DHT22;10231;47.702;9.826;2023-02-02T17:37:10;4.70;99.90
20141;DHT22;10231;47.702;9.826;2023-02-02T17:39:36;4.70;99.90
20141;DHT22;10231;47.702;9.826;2023-02-02T17:42:03;4.70;99.90
20141;DHT22;10231;47.702;9.826;2023-02-02T17:44:28;4.70;99.90
20141;DHT22;10231;47.702;9.826;2023-02-02T17:46:54;4.70;99.90
20141;DHT22;10231;47.702;9.826;2023-02-02T17:49:19;4.70;99.90
20141;DHT22;10231;47.702;9.826;2023-02-02T17:51:45;4.70;99.90
20141;DHT22;10231;47.702;9.826;2023-02-02T17:54:12;4.70;99.90
20141;DHT22;10231;47.702;9.826;2023-02-02T17:56:38;4.70;99.90
20141;DHT22;10231;47.702;9.826;2023-02-02T17:59:04;4.60;99.90
20141;DHT22;10231;47.702;9.826;2023-02-02T18:01:29;4.60;99.90
20141;DHT22;10231;47.702;9.826;2023-02-02T18:03:55;4.50;99.90
20141;DHT22;10231;47.702;9.826;2023-02-02T18:06:21;4.60;99.90
20141;DHT22;10231;47.702;9.826;2023-02-02T18:08:47;4.60;99.90
20141;DHT22;10231;47.702;9.826;2023-02-02T18:11:13;4.60;99.90